sensor_id;sensor_type;location;lat;lon;timestamp;pressure;altitude;pressure_sealevel;temperature;humidity
54306;BME280;66145;45.188;5.712;2023-02-23T00:01:40;99002.78;;;20.27;43.90
54306;BME280;66145;45.188;5.712;2023-02-23T00:04:06;98934.28;;;19.83;43.76
54306;BME280;66145;45.188;5.712;2023-02-23T00:06:33;98979.53;;;20.16;43.91
54306;BME280;66145;45.188;5.712;2023-02-23T00:09:00;98994.38;;;20.24;43.97
54306;BME280;66145;45.188;5.712;2023-02-23T00:11:27;98968.47;;;20.03;43.83
54306;BME280;66145;45.188;5.712;2023-02-23T00:13:53;98963.81;;;19.95;44.05
54306;BME280;66145;45.188;5.712;2023-02-23T00:16:22;98969.47;;;19.99;44.08
54306;BME280;66145;45.188;5.712;2023-02-23T00:18:51;99001.81;;;20.23;43.96
54306;BME280;66145;45.188;5.712;2023-02-23T00:21:21;98930.94;;;19.78;43.81
54306;BME280;66145;45.188;5.712;2023-02-23T00:23:57;99001.16;;;20.26;43.99
54306;BME280;66145;45.188;5.712;2023-02-23T00:26:26;98995.63;;;20.35;43.71
54306;BME280;66145;45.188;5.712;2023-02-23T00:28:55;98975.16;;;20.24;43.76
54306;BME280;66145;45.188;5.712;2023-02-23T00:31:22;98937.94;;;20.05;43.78
54306;BME280;66145;45.188;5.712;2023-02-23T00:33:54;98967.91;;;20.19;43.85
54306;BME280;66145;45.188;5.712;2023-02-23T00:36:22;98936.34;;;20.04;43.70
54306;BME280;66145;45.188;5.712;2023-02-23T00:38:51;98963.06;;;20.16;43.85
54306;BME280;66145;45.188;5.712;2023-02-23T00:41:17;98931.03;;;19.99;43.92
54306;BME280;66145;45.188;5.712;2023-02-23T00:43:46;98958.25;;;20.13;43.97
54306;BME280;66145;45.188;5.712;2023-02-23T00:46:16;98924.59;;;19.86;43.70
54306;BME280;66145;45.188;5.712;2023-02-23T00:48:46;98959.53;;;20.15;43.78
54306;BME280;66145;45.188;5.712;2023-02-23T00:51:12;98987.22;;;20.31;43.78
54306;BME280;66145;45.188;5.712;2023-02-23T00:53:38;98984.63;;;20.35;43.73
54306;BME280;66145;45.188;5.712;2023-02-23T00:56:04;98993.28;;;20.46;43.61
54306;BME280;66145;45.188;5.712;2023-02-23T00:58:31;98980.50;;;20.50;43.43
54306;BME280;66145;45.188;5.712;2023-02-23T01:00:57;98956.97;;;20.40;43.42
54306;BME280;66145;45.188;5.712;2023-02-23T01:03:26;98977.56;;;20.55;43.41
54306;BME280;66145;45.188;5.712;2023-02-23T01:05:51;98986.53;;;20.64;43.18
54306;BME280;66145;45.188;5.712;2023-02-23T01:08:19;98915.41;;;20.20;43.35
54306;BME280;66145;45.188;5.712;2023-02-23T01:10:44;98987.06;;;20.58;43.53
54306;BME280;66145;45.188;5.712;2023-02-23T01:13:20;98954.81;;;20.46;43.39
54306;BME280;66145;45.188;5.712;2023-02-23T01:15:46;98953.69;;;20.47;43.44
54306;BME280;66145;45.188;5.712;2023-02-23T01:18:14;98950.69;;;20.40;43.53
54306;BME280;66145;45.188;5.712;2023-02-23T01:20:40;98962.22;;;20.54;43.55
54306;BME280;66145;45.188;5.712;2023-02-23T01:23:07;98945.19;;;20.40;43.80
54306;BME280;66145;45.188;5.712;2023-02-23T01:25:33;98975.59;;;20.56;43.41
54306;BME280;66145;45.188;5.712;2023-02-23T01:27:59;98970.75;;;20.61;43.69
54306;BME280;66145;45.188;5.712;2023-02-23T01:30:24;98979.13;;;20.65;43.58
54306;BME280;66145;45.188;5.712;2023-02-23T01:32:50;98970.81;;;20.74;43.26
54306;BME280;66145;45.188;5.712;2023-02-23T01:35:16;98967.91;;;20.70;43.21
54306;BME280;66145;45.188;5.712;2023-02-23T01:37:42;98947.41;;;20.67;42.92
54306;BME280;66145;45.188;5.712;2023-02-23T01:40:12;98917.97;;;20.47;43.44
54306;BME280;66145;45.188;5.712;2023-02-23T01:42:40;98969.97;;;20.82;43.36
54306;BME280;66145;45.188;5.712;2023-02-23T01:48:01;98980.34;;;20.76;42.95
54306;BME280;66145;45.188;5.712;2023-02-23T01:50:37;98971.13;;;20.72;43.38
54306;BME280;66145;45.188;5.712;2023-02-23T01:53:04;98957.75;;;20.71;43.21
54306;BME280;66145;45.188;5.712;2023-02-23T01:55:30;98957.94;;;20.65;43.31
54306;BME280;66145;45.188;5.712;2023-02-23T01:58:03;98966.28;;;20.78;43.16
54306;BME280;66145;45.188;5.712;2023-02-23T02:00:30;98964.69;;;20.77;43.14
54306;BME280;66145;45.188;5.712;2023-02-23T02:02:59;98961.72;;;20.82;43.04
54306;BME280;66145;45.188;5.712;2023-02-23T02:05:27;98956.56;;;20.80;42.91
54306;BME280;66145;45.188;5.712;2023-02-23T02:07:53;98878.91;;;20.41;43.18
54306;BME280;66145;45.188;5.712;2023-02-23T02:10:25;98960.19;;;20.93;42.78
54306;BME280;66145;45.188;5.712;2023-02-23T02:13:14;98957.09;;;20.95;42.77
54306;BME280;66145;45.188;5.712;2023-02-23T02:16:16;98948.03;;;20.94;42.91
54306;BME280;66145;45.188;5.712;2023-02-23T02:32:37;98936.13;;;20.90;43.49
54306;BME280;66145;45.188;5.712;2023-02-23T02:45:58;98924.56;;;20.97;43.32
54306;BME280;66145;45.188;5.712;2023-02-23T02:48:38;98921.09;;;20.88;43.38
54306;BME280;66145;45.188;5.712;2023-02-23T02:51:15;98885.16;;;20.72;43.56
54306;BME280;66145;45.188;5.712;2023-02-23T02:56:22;98916.22;;;20.93;43.46
54306;BME280;66145;45.188;5.712;2023-02-23T02:58:51;98908.16;;;20.88;43.62
54306;BME280;66145;45.188;5.712;2023-02-23T03:01:18;98922.41;;;21.03;43.34
54306;BME280;66145;45.188;5.712;2023-02-23T03:04:23;98905.88;;;20.90;43.35
54306;BME280;66145;45.188;5.712;2023-02-23T03:07:20;98908.22;;;21.01;43.02
54306;BME280;66145;45.188;5.712;2023-02-23T03:10:35;98918.78;;;21.11;43.19
54306;BME280;66145;45.188;5.712;2023-02-23T03:19:59;98914.47;;;21.22;42.68
54306;BME280;66145;45.188;5.712;2023-02-23T03:23:20;98899.53;;;21.11;43.05
54306;BME280;66145;45.188;5.712;2023-02-23T03:26:22;98879.91;;;21.00;42.82
54306;BME280;66145;45.188;5.712;2023-02-23T03:29:17;98908.25;;;21.13;42.61
54306;BME280;66145;45.188;5.712;2023-02-23T03:32:15;98902.75;;;21.13;43.03
54306;BME280;66145;45.188;5.712;2023-02-23T03:35:16;98905.38;;;21.09;42.77
54306;BME280;66145;45.188;5.712;2023-02-23T03:38:10;98856.13;;;20.83;42.65
54306;BME280;66145;45.188;5.712;2023-02-23T03:40:59;98906.44;;;21.17;42.66
54306;BME280;66145;45.188;5.712;2023-02-23T03:43:50;98881.28;;;21.06;42.66
54306;BME280;66145;45.188;5.712;2023-02-23T03:46:38;98863.53;;;21.04;42.66
54306;BME280;66145;45.188;5.712;2023-02-23T03:49:27;98901.31;;;21.28;42.58
54306;BME280;66145;45.188;5.712;2023-02-23T03:52:16;98884.06;;;21.19;42.36
54306;BME280;66145;45.188;5.712;2023-02-23T03:55:07;98890.88;;;21.21;42.47
54306;BME280;66145;45.188;5.712;2023-02-23T03:57:54;98885.25;;;21.18;42.55
54306;BME280;66145;45.188;5.712;2023-02-23T04:00:45;98878.91;;;21.05;42.78
54306;BME280;66145;45.188;5.712;2023-02-23T04:03:32;98893.94;;;21.20;42.79
54306;BME280;66145;45.188;5.712;2023-02-23T04:06:23;98887.53;;;21.16;42.70
54306;BME280;66145;45.188;5.712;2023-02-23T04:09:09;98895.06;;;21.19;42.77
54306;BME280;66145;45.188;5.712;2023-02-23T04:12:14;98861.72;;;21.08;42.61
54306;BME280;66145;45.188;5.712;2023-02-23T04:15:12;98894.66;;;21.29;42.55
54306;BME280;66145;45.188;5.712;2023-02-23T04:17:41;98856.00;;;21.13;42.40
54306;BME280;66145;45.188;5.712;2023-02-23T04:20:10;98880.44;;;21.27;42.58
54306;BME280;66145;45.188;5.712;2023-02-23T04:22:36;98874.00;;;21.23;42.54
54306;BME280;66145;45.188;5.712;2023-02-23T04:25:02;98892.84;;;21.33;42.41
54306;BME280;66145;45.188;5.712;2023-02-23T04:27:27;98888.13;;;21.34;42.22
54306;BME280;66145;45.188;5.712;2023-02-23T04:29:52;98875.06;;;21.31;42.07
54306;BME280;66145;45.188;5.712;2023-02-23T04:32:18;98865.66;;;21.19;42.27
54306;BME280;66145;45.188;5.712;2023-02-23T04:34:45;98889.75;;;21.35;42.49
54306;BME280;66145;45.188;5.712;2023-02-23T04:37:10;98891.25;;;21.32;42.48
54306;BME280;66145;45.188;5.712;2023-02-23T04:39:36;98889.63;;;21.31;42.31
54306;BME280;66145;45.188;5.712;2023-02-23T04:42:01;98861.03;;;21.11;42.50
54306;BME280;66145;45.188;5.712;2023-02-23T04:44:30;98868.03;;;21.08;42.50
54306;BME280;66145;45.188;5.712;2023-02-23T04:46:56;98815.03;;;20.87;42.41
54306;BME280;66145;45.188;5.712;2023-02-23T04:49:22;98849.59;;;21.09;42.36
54306;BME280;66145;45.188;5.712;2023-02-23T04:51:47;98858.06;;;21.16;42.38
54306;BME280;66145;45.188;5.712;2023-02-23T04:54:13;98864.50;;;21.20;42.49
54306;BME280;66145;45.188;5.712;2023-02-23T04:56:38;98862.91;;;21.19;42.29
54306;BME280;66145;45.188;5.712;2023-02-23T04:59:04;98862.69;;;21.24;42.14
54306;BME280;66145;45.188;5.712;2023-02-23T05:01:29;98837.78;;;21.08;42.08
54306;BME280;66145;45.188;5.712;2023-02-23T05:03:57;98841.69;;;21.20;42.17
54306;BME280;66145;45.188;5.712;2023-02-23T05:06:22;98859.38;;;21.31;42.22
54306;BME280;66145;45.188;5.712;2023-02-23T05:08:48;98878.38;;;21.36;42.28
54306;BME280;66145;45.188;5.712;2023-02-23T05:11:13;98811.41;;;20.95;42.36
54306;BME280;66145;45.188;5.712;2023-02-23T05:13:38;98820.22;;;21.01;42.11
54306;BME280;66145;45.188;5.712;2023-02-23T05:16:04;98845.13;;;21.17;42.23
54306;BME280;66145;45.188;5.712;2023-02-23T05:18:30;98840.63;;;21.12;42.32
54306;BME280;66145;45.188;5.712;2023-02-23T05:21:06;98850.28;;;21.18;42.42
54306;BME280;66145;45.188;5.712;2023-02-23T05:23:33;98855.91;;;21.22;42.02
54306;BME280;66145;45.188;5.712;2023-02-23T05:26:10;98851.22;;;21.22;42.06
54306;BME280;66145;45.188;5.712;2023-02-23T05:28:37;98877.72;;;21.39;42.03
54306;BME280;66145;45.188;5.712;2023-02-23T05:31:03;98875.78;;;21.40;41.94
54306;BME280;66145;45.188;5.712;2023-02-23T05:33:30;98865.44;;;21.37;42.17
54306;BME280;66145;45.188;5.712;2023-02-23T05:35:56;98880.00;;;21.37;42.23
54306;BME280;66145;45.188;5.712;2023-02-23T05:38:22;98871.97;;;21.32;42.19
54306;BME280;66145;45.188;5.712;2023-02-23T05:40:47;98876.47;;;21.37;42.33
54306;BME280;66145;45.188;5.712;2023-02-23T05:43:13;98828.59;;;21.04;42.23
54306;BME280;66145;45.188;5.712;2023-02-23T05:45:39;98851.78;;;21.16;42.12
54306;BME280;66145;45.188;5.712;2023-02-23T05:48:06;98880.81;;;21.38;42.05
54306;BME280;66145;45.188;5.712;2023-02-23T05:50:31;98846.75;;;21.18;42.11
54306;BME280;66145;45.188;5.712;2023-02-23T05:52:57;98851.69;;;21.24;42.05
54306;BME280;66145;45.188;5.712;2023-02-23T05:55:22;98880.13;;;21.41;42.00
54306;BME280;66145;45.188;5.712;2023-02-23T05:57:48;98874.03;;;21.35;42.19
54306;BME280;66145;45.188;5.712;2023-02-23T06:00:14;98847.78;;;21.25;42.12
54306;BME280;66145;45.188;5.712;2023-02-23T06:02:40;98884.72;;;21.49;41.96
54306;BME280;66145;45.188;5.712;2023-02-23T06:05:06;98837.00;;;21.20;41.92
54306;BME280;66145;45.188;5.712;2023-02-23T06:07:32;98874.50;;;21.37;42.07
54306;BME280;66145;45.188;5.712;2023-02-23T06:09:57;98851.91;;;21.19;42.20
54306;BME280;66145;45.188;5.712;2023-02-23T06:12:23;98880.00;;;21.37;42.30
54306;BME280;66145;45.188;5.712;2023-02-23T06:14:48;98871.53;;;21.30;42.20
54306;BME280;66145;45.188;5.712;2023-02-23T06:17:16;98864.63;;;21.24;42.42
54306;BME280;66145;45.188;5.712;2023-02-23T06:19:42;98878.38;;;21.36;42.17
54306;BME280;66145;45.188;5.712;2023-02-23T06:22:08;98805.72;;;20.79;42.16
54306;BME280;66145;45.188;5.712;2023-02-23T06:24:33;98864.28;;;21.25;42.16
54306;BME280;66145;45.188;5.712;2023-02-23T06:26:59;98862.78;;;21.16;41.84
54306;BME280;66145;45.188;5.712;2023-02-23T06:29:25;98894.47;;;21.47;41.93
54306;BME280;66145;45.188;5.712;2023-02-23T06:31:50;98900.78;;;21.47;41.71
54306;BME280;66145;45.188;5.712;2023-02-23T06:34:16;98888.28;;;21.50;41.98
54306;BME280;66145;45.188;5.712;2023-02-23T06:36:41;98873.34;;;21.38;42.03
54306;BME280;66145;45.188;5.712;2023-02-23T06:39:09;98895.03;;;21.40;41.92
54306;BME280;66145;45.188;5.712;2023-02-23T06:41:35;98822.50;;;20.99;41.79
54306;BME280;66145;45.188;5.712;2023-02-23T06:44:00;98895.03;;;21.40;42.01
54306;BME280;66145;45.188;5.712;2023-02-23T06:46:25;98886.31;;;21.38;41.99
54306;BME280;66145;45.188;5.712;2023-02-23T06:48:55;98889.41;;;21.36;42.06
54306;BME280;66145;45.188;5.712;2023-02-23T06:51:20;98864.50;;;21.20;41.98
54306;BME280;66145;45.188;5.712;2023-02-23T06:53:45;98869.19;;;21.20;42.20
54306;BME280;66145;45.188;5.712;2023-02-23T06:56:11;98893.28;;;21.35;41.87
54306;BME280;66145;45.188;5.712;2023-02-23T06:58:40;98902.25;;;21.45;42.00
54306;BME280;66145;45.188;5.712;2023-02-23T07:01:07;98835.69;;;21.05;41.86
54306;BME280;66145;45.188;5.712;2023-02-23T07:03:34;98910.97;;;21.47;41.87
54306;BME280;66145;45.188;5.712;2023-02-23T07:05:59;98896.94;;;21.27;42.51
54306;BME280;66145;45.188;5.712;2023-02-23T07:08:24;98911.25;;;21.20;42.26
54306;BME280;66145;45.188;5.712;2023-02-23T07:10:50;98863.34;;;21.09;41.74
54306;BME280;66145;45.188;5.712;2023-02-23T07:13:15;98912.34;;;21.40;41.68
54306;BME280;66145;45.188;5.712;2023-02-23T07:15:41;98916.81;;;21.45;41.60
54306;BME280;66145;45.188;5.712;2023-02-23T07:18:06;98923.81;;;21.42;41.78
54306;BME280;66145;45.188;5.712;2023-02-23T07:20:32;98886.97;;;21.22;41.66
54306;BME280;66145;45.188;5.712;2023-02-23T07:22:59;98921.84;;;21.43;41.81
54306;BME280;66145;45.188;5.712;2023-02-23T07:25:28;98895.81;;;21.28;41.83
54306;BME280;66145;45.188;5.712;2023-02-23T07:27:53;98893.06;;;21.28;41.64
54306;BME280;66145;45.188;5.712;2023-02-23T07:30:20;98894.66;;;21.29;41.71
54306;BME280;66145;45.188;5.712;2023-02-23T07:32:49;98920.16;;;21.51;41.48
54306;BME280;66145;45.188;5.712;2023-02-23T07:35:14;98917.75;;;21.49;41.79
54306;BME280;66145;45.188;5.712;2023-02-23T07:37:40;98907.41;;;21.46;41.73
54306;BME280;66145;45.188;5.712;2023-02-23T07:40:07;98927.25;;;21.52;41.70
54306;BME280;66145;45.188;5.712;2023-02-23T07:42:36;98926.13;;;21.53;41.55
54306;BME280;66145;45.188;5.712;2023-02-23T07:45:02;98886.97;;;21.22;41.58
54306;BME280;66145;45.188;5.712;2023-02-23T07:47:27;98898.19;;;21.17;42.62
54306;BME280;66145;45.188;5.712;2023-02-23T07:49:56;98924.53;;;21.18;41.88
54306;BME280;66145;45.188;5.712;2023-02-23T07:52:22;98920.66;;;21.19;41.46
54306;BME280;66145;45.188;5.712;2023-02-23T07:54:47;98900.06;;;21.04;41.20
54306;BME280;66145;45.188;5.712;2023-02-23T07:57:12;98889.06;;;21.04;41.26
54306;BME280;66145;45.188;5.712;2023-02-23T07:59:38;98918.56;;;21.16;41.35
54306;BME280;66145;45.188;5.712;2023-02-23T08:02:03;98915.22;;;21.10;41.20
54306;BME280;66145;45.188;5.712;2023-02-23T08:04:29;98901.75;;;20.96;41.33
54306;BME280;66145;45.188;5.712;2023-02-23T08:06:54;98925.28;;;21.06;41.34
54306;BME280;66145;45.188;5.712;2023-02-23T08:09:20;98895.09;;;20.85;41.24
54306;BME280;66145;45.188;5.712;2023-02-23T08:11:45;98895.28;;;20.80;41.26
54306;BME280;66145;45.188;5.712;2023-02-23T08:14:10;98921.34;;;20.95;41.44
54306;BME280;66145;45.188;5.712;2023-02-23T08:16:37;98916.22;;;20.93;41.50
54306;BME280;66145;45.188;5.712;2023-02-23T08:19:02;98853.47;;;20.53;41.44
54306;BME280;66145;45.188;5.712;2023-02-23T08:21:30;98915.94;;;20.86;41.42
54306;BME280;66145;45.188;5.712;2023-02-23T08:23:56;98816.69;;;20.24;41.54
54306;BME280;66145;45.188;5.712;2023-02-23T08:26:21;98912.84;;;20.88;41.57
54306;BME280;66145;45.188;5.712;2023-02-23T08:28:49;98882.72;;;20.70;41.43
54306;BME280;66145;45.188;5.712;2023-02-23T08:31:15;98907.22;;;20.84;41.87
54306;BME280;66145;45.188;5.712;2023-02-23T08:33:43;98910.91;;;20.88;41.51
54306;BME280;66145;45.188;5.712;2023-02-23T08:36:08;98877.31;;;20.61;41.75
54306;BME280;66145;45.188;5.712;2023-02-23T08:38:34;98920.47;;;20.10;43.11
54306;BME280;66145;45.188;5.712;2023-02-23T08:41:01;98923.13;;;19.97;42.96
54306;BME280;66145;45.188;5.712;2023-02-23T08:43:27;98891.78;;;19.98;42.44
54306;BME280;66145;45.188;5.712;2023-02-23T08:45:53;98833.59;;;19.75;41.89
54306;BME280;66145;45.188;5.712;2023-02-23T08:48:18;98917.59;;;20.36;42.08
54306;BME280;66145;45.188;5.712;2023-02-23T08:50:43;98922.72;;;20.38;41.63
54306;BME280;66145;45.188;5.712;2023-02-23T08:53:14;98920.47;;;20.40;41.98
54306;BME280;66145;45.188;5.712;2023-02-23T08:55:40;98918.19;;;20.42;42.08
54306;BME280;66145;45.188;5.712;2023-02-23T08:58:07;98919.81;;;20.43;42.03
54306;BME280;66145;45.188;5.712;2023-02-23T09:00:35;98828.94;;;20.05;41.54
54306;BME280;66145;45.188;5.712;2023-02-23T09:03:00;98889.31;;;20.57;41.47
54306;BME280;66145;45.188;5.712;2023-02-23T09:05:26;98886.34;;;20.62;41.56
54306;BME280;66145;45.188;5.712;2023-02-23T09:07:51;98900.97;;;20.75;41.20
54306;BME280;66145;45.188;5.712;2023-02-23T09:10:18;98891.84;;;20.62;41.27
54306;BME280;66145;45.188;5.712;2023-02-23T09:12:44;98906.78;;;20.73;41.42
54306;BME280;66145;45.188;5.712;2023-02-23T09:15:10;98903.91;;;20.70;41.50
54306;BME280;66145;45.188;5.712;2023-02-23T09:17:36;98872.41;;;20.46;41.30
54306;BME280;66145;45.188;5.712;2023-02-23T09:20:03;98855.53;;;19.75;43.06
54306;BME280;66145;45.188;5.712;2023-02-23T09:22:29;98911.00;;;20.28;42.21
54306;BME280;66145;45.188;5.712;2023-02-23T09:24:54;98883.72;;;20.23;41.72
54306;BME280;66145;45.188;5.712;2023-02-23T09:27:23;98918.84;;;20.60;41.34
54306;BME280;66145;45.188;5.712;2023-02-23T09:29:48;98894.66;;;20.53;41.32
54306;BME280;66145;45.188;5.712;2023-02-23T09:32:13;98908.41;;;20.74;41.31
54306;BME280;66145;45.188;5.712;2023-02-23T09:34:39;98903.44;;;20.89;40.90
54306;BME280;66145;45.188;5.712;2023-02-23T09:37:05;98906.00;;;20.94;40.91
54306;BME280;66145;45.188;5.712;2023-02-23T09:39:32;98906.59;;;21.00;40.96
54306;BME280;66145;45.188;5.712;2023-02-23T09:49:52;98876.09;;;20.71;41.45
54306;BME280;66145;45.188;5.712;2023-02-23T09:52:24;98891.75;;;20.79;41.17
54306;BME280;66145;45.188;5.712;2023-02-23T09:54:52;98831.56;;;20.44;41.32
54306;BME280;66145;45.188;5.712;2023-02-23T09:57:23;98876.91;;;20.72;41.37
54306;BME280;66145;45.188;5.712;2023-02-23T09:59:49;98886.25;;;20.79;41.27
54306;BME280;66145;45.188;5.712;2023-02-23T10:02:17;98885.09;;;20.80;41.19
54306;BME280;66145;45.188;5.712;2023-02-23T10:04:59;98840.22;;;20.34;41.81
54306;BME280;66145;45.188;5.712;2023-02-23T10:10:12;98886.22;;;20.37;42.11
54306;BME280;66145;45.188;5.712;2023-02-23T10:12:47;98881.06;;;20.35;42.14
54306;BME280;66145;45.188;5.712;2023-02-23T10:21:06;98856.56;;;20.00;42.26
54306;BME280;66145;45.188;5.712;2023-02-23T10:23:21;98837.75;;;19.90;42.41
54306;BME280;66145;45.188;5.712;2023-02-23T10:25:49;98872.19;;;20.09;42.56
54306;BME280;66145;45.188;5.712;2023-02-23T10:28:19;98868.78;;;20.12;42.63
54306;BME280;66145;45.188;5.712;2023-02-23T10:30:48;98861.34;;;20.12;42.40
54306;BME280;66145;45.188;5.712;2023-02-23T10:33:19;98851.03;;;20.09;42.65
54306;BME280;66145;45.188;5.712;2023-02-23T10:35:46;98861.41;;;20.25;42.33
54306;BME280;66145;45.188;5.712;2023-02-23T10:38:15;98864.16;;;20.25;42.53
54306;BME280;66145;45.188;5.712;2023-02-23T10:40:47;98833.94;;;20.03;42.29
54306;BME280;66145;45.188;5.712;2023-02-23T10:43:13;98837.50;;;20.04;42.46
54306;BME280;66145;45.188;5.712;2023-02-23T10:45:51;98867.97;;;20.11;42.46
54306;BME280;66145;45.188;5.712;2023-02-23T10:48:27;98829.84;;;19.88;42.55
54306;BME280;66145;45.188;5.712;2023-02-23T10:50:55;98827.13;;;19.80;42.73
54306;BME280;66145;45.188;5.712;2023-02-23T10:53:33;98852.75;;;19.93;42.83
54306;BME280;66145;45.188;5.712;2023-02-23T10:56:18;98838.69;;;19.94;42.89
54306;BME280;66145;45.188;5.712;2023-02-23T10:58:47;98784.97;;;19.54;42.98
54306;BME280;66145;45.188;5.712;2023-02-23T11:01:16;98837.75;;;19.90;43.07
54306;BME280;66145;45.188;5.712;2023-02-23T11:03:55;98825.63;;;19.91;42.69
54306;BME280;66145;45.188;5.712;2023-02-23T11:06:32;98834.41;;;20.05;42.65
54306;BME280;66145;45.188;5.712;2023-02-23T11:08:58;98817.16;;;20.05;42.56
54306;BME280;66145;45.188;5.712;2023-02-23T11:11:26;98723.94;;;19.57;42.46
54306;BME280;66145;45.188;5.712;2023-02-23T11:13:53;98825.41;;;20.26;42.63
54306;BME280;66145;45.188;5.712;2023-02-23T11:18:55;98796.81;;;20.27;42.02
54306;BME280;66145;45.188;5.712;2023-02-23T11:23:51;98776.75;;;20.27;41.89
54306;BME280;66145;45.188;5.712;2023-02-23T11:26:30;98797.09;;;20.47;41.83
54306;BME280;66145;45.188;5.712;2023-02-23T11:29:03;98808.47;;;20.58;41.57
54306;BME280;66145;45.188;5.712;2023-02-23T11:31:36;98801.53;;;20.60;41.52
54306;BME280;66145;45.188;5.712;2023-02-23T11:34:03;98795.13;;;20.69;41.69
54306;BME280;66145;45.188;5.712;2023-02-23T11:36:34;98677.91;;;19.93;41.46
54306;BME280;66145;45.188;5.712;2023-02-23T11:41:41;98780.72;;;20.72;41.69
54306;BME280;66145;45.188;5.712;2023-02-23T11:44:21;98770.06;;;20.70;41.22
54306;BME280;66145;45.188;5.712;2023-02-23T11:46:46;98765.72;;;20.69;41.18
54306;BME280;66145;45.188;5.712;2023-02-23T11:49:18;98766.00;;;20.76;41.54
54306;BME280;66145;45.188;5.712;2023-02-23T11:51:47;98768.19;;;20.83;40.98
54306;BME280;66145;45.188;5.712;2023-02-23T11:54:28;98730.88;;;20.61;41.24
54306;BME280;66145;45.188;5.712;2023-02-23T11:56:55;98758.91;;;20.88;41.20
54306;BME280;66145;45.188;5.712;2023-02-23T11:59:37;98759.59;;;20.85;41.65
54306;BME280;66145;45.188;5.712;2023-02-23T12:02:27;98762.34;;;20.85;41.57
54306;BME280;66145;45.188;5.712;2023-02-23T12:05:17;98754.44;;;20.83;41.77
54306;BME280;66145;45.188;5.712;2023-02-23T12:08:15;98746.75;;;20.76;41.67
54306;BME280;66145;45.188;5.712;2023-02-23T12:11:02;98752.25;;;20.76;41.90
54306;BME280;66145;45.188;5.712;2023-02-23T12:13:38;98716.22;;;20.57;42.09
54306;BME280;66145;45.188;5.712;2023-02-23T12:27:17;98733.84;;;20.89;42.23
54306;BME280;66145;45.188;5.712;2023-02-23T12:32:18;98701.50;;;20.40;42.81
54306;BME280;66145;45.188;5.712;2023-02-23T12:35:21;98726.28;;;20.52;43.03
54306;BME280;66145;45.188;5.712;2023-02-23T12:37:59;98730.19;;;20.51;43.14
54306;BME280;66145;45.188;5.712;2023-02-23T12:40:29;98724.53;;;20.48;43.28
54306;BME280;66145;45.188;5.712;2023-02-23T12:43:16;98721.38;;;20.58;43.00
54306;BME280;66145;45.188;5.712;2023-02-23T12:45:53;98700.63;;;20.48;43.24
54306;BME280;66145;45.188;5.712;2023-02-23T12:53:48;98715.78;;;20.67;43.12
54306;BME280;66145;45.188;5.712;2023-02-23T13:05:12;98710.38;;;20.58;43.13
54306;BME280;66145;45.188;5.712;2023-02-23T13:08:01;98705.78;;;20.50;43.22
54306;BME280;66145;45.188;5.712;2023-02-23T13:10:39;98713.91;;;20.46;43.41
54306;BME280;66145;45.188;5.712;2023-02-23T13:16:18;98710.69;;;20.44;43.32
54306;BME280;66145;45.188;5.712;2023-02-23T13:19:19;98699.22;;;20.42;43.55
54306;BME280;66145;45.188;5.712;2023-02-23T13:24:17;98672.66;;;20.34;43.03
54306;BME280;66145;45.188;5.712;2023-02-23T13:26:50;98675.53;;;20.38;43.24
54306;BME280;66145;45.188;5.712;2023-02-23T13:31:48;98694.31;;;20.48;43.40
54306;BME280;66145;45.188;5.712;2023-02-23T13:34:25;98663.97;;;20.32;42.90
54306;BME280;66145;45.188;5.712;2023-02-23T13:36:51;98674.63;;;20.46;42.79
54306;BME280;66145;45.188;5.712;2023-02-23T13:39:42;98696.09;;;20.65;42.40
54306;BME280;66145;45.188;5.712;2023-02-23T13:46:21;98686.13;;;20.60;42.78
54306;BME280;66145;45.188;5.712;2023-02-23T13:51:02;98682.19;;;20.49;42.89
54306;BME280;66145;45.188;5.712;2023-02-23T13:53:38;98681.16;;;20.41;43.20
54306;BME280;66145;45.188;5.712;2023-02-23T13:56:14;98677.03;;;20.35;43.28
54306;BME280;66145;45.188;5.712;2023-02-23T13:59:06;98679.41;;;20.36;43.13
54306;BME280;66145;45.188;5.712;2023-02-23T14:01:42;98635.16;;;20.04;42.83
54306;BME280;66145;45.188;5.712;2023-02-23T14:04:21;98672.53;;;20.30;43.24
54306;BME280;66145;45.188;5.712;2023-02-23T14:07:01;98659.25;;;20.32;43.00
54306;BME280;66145;45.188;5.712;2023-02-23T14:09:35;98654.22;;;20.34;42.82
54306;BME280;66145;45.188;5.712;2023-02-23T14:12:14;98653.56;;;20.38;42.73
54306;BME280;66145;45.188;5.712;2023-02-23T14:14:45;98648.06;;;20.38;42.88
54306;BME280;66145;45.188;5.712;2023-02-23T14:20:37;98657.38;;;20.58;42.71
54306;BME280;66145;45.188;5.712;2023-02-23T14:25:51;98629.69;;;20.50;42.59
54306;BME280;66145;45.188;5.712;2023-02-23T14:28:34;98649.66;;;20.85;42.51
54306;BME280;66145;45.188;5.712;2023-02-23T14:38:50;98620.84;;;19.78;44.10
54306;BME280;66145;45.188;5.712;2023-02-23T14:41:30;98649.03;;;19.87;44.11
54306;BME280;66145;45.188;5.712;2023-02-23T14:43:59;98644.78;;;20.11;43.40
54306;BME280;66145;45.188;5.712;2023-02-23T14:46:30;98647.06;;;20.09;43.63
54306;BME280;66145;45.188;5.712;2023-02-23T14:49:08;98633.97;;;19.72;44.18
54306;BME280;66145;45.188;5.712;2023-02-23T14:51:40;98648.50;;;19.94;44.01
54306;BME280;66145;45.188;5.712;2023-02-23T14:57:13;98618.22;;;20.02;43.42
54306;BME280;66145;45.188;5.712;2023-02-23T14:59:42;98619.34;;;20.35;42.90
54306;BME280;66145;45.188;5.712;2023-02-23T15:02:17;98613.06;;;20.47;42.69
54306;BME280;66145;45.188;5.712;2023-02-23T15:04:42;98611.81;;;20.57;42.52
54306;BME280;66145;45.188;5.712;2023-02-23T15:07:21;98601.84;;;20.40;42.55
54306;BME280;66145;45.188;5.712;2023-02-23T15:09:53;98620.84;;;20.45;42.97
54306;BME280;66145;45.188;5.712;2023-02-23T15:12:26;98631.66;;;20.16;43.43
54306;BME280;66145;45.188;5.712;2023-02-23T15:14:56;98549.88;;;19.55;43.44
54306;BME280;66145;45.188;5.712;2023-02-23T15:17:25;98588.13;;;19.72;43.97
54306;BME280;66145;45.188;5.712;2023-02-23T15:19:58;98599.91;;;19.73;43.71
54306;BME280;66145;45.188;5.712;2023-02-23T15:22:28;98625.78;;;19.84;44.22